sensor_id;sensor_type;location;lat;lon;timestamp;P1;durP1;ratioP1;P2;durP2;ratioP2
52848;SDS011;38714;53.180;5.812;2023-03-01T00:01:23;12.27;;;7.27;;
52848;SDS011;38714;53.180;5.812;2023-03-01T00:03:51;11.63;;;8.17;;
52848;SDS011;38714;53.180;5.812;2023-03-01T00:06:17;10.47;;;7.20;;
52848;SDS011;38714;53.180;5.812;2023-03-01T00:08:43;11.23;;;7.67;;
52848;SDS011;38714;53.180;5.812;2023-03-01T00:11:13;12.27;;;9.13;;
52848;SDS011;38714;53.180;5.812;2023-03-01T00:13:40;13.20;;;8.03;;
52848;SDS011;38714;53.180;5.812;2023-03-01T00:16:07;12.70;;;9.53;;
52848;SDS011;38714;53.180;5.812;2023-03-01T00:18:38;13.30;;;8.52;;
52848;SDS011;38714;53.180;5.812;2023-03-01T00:21:04;10.63;;;7.43;;
52848;SDS011;38714;53.180;5.812;2023-03-01T00:23:30;13.60;;;9.97;;
52848;SDS011;38714;53.180;5.812;2023-03-01T00:25:56;10.63;;;8.77;;
52848;SDS011;38714;53.180;5.812;2023-03-01T00:28:22;11.07;;;8.10;;
52848;SDS011;38714;53.180;5.812;2023-03-01T00:30:48;12.07;;;8.07;;
52848;SDS011;38714;53.180;5.812;2023-03-01T00:33:14;12.50;;;7.90;;
52848;SDS011;38714;53.180;5.812;2023-03-01T00:35:40;8.73;;;6.30;;
52848;SDS011;38714;53.180;5.812;2023-03-01T00:38:05;12.03;;;8.00;;
52848;SDS011;38714;53.180;5.812;2023-03-01T00:40:32;10.00;;;8.20;;
52848;SDS011;38714;53.180;5.812;2023-03-01T00:42:58;10.47;;;8.33;;
52848;SDS011;38714;53.180;5.812;2023-03-01T00:45:25;11.13;;;8.90;;
52848;SDS011;38714;53.180;5.812;2023-03-01T00:47:51;9.83;;;7.50;;
52848;SDS011;38714;53.180;5.812;2023-03-01T00:50:17;9.37;;;7.20;;
52848;SDS011;38714;53.180;5.812;2023-03-01T00:52:43;6.60;;;6.03;;
52848;SDS011;38714;53.180;5.812;2023-03-01T00:55:09;8.60;;;5.70;;
52848;SDS011;38714;53.180;5.812;2023-03-01T00:57:36;7.43;;;6.60;;
52848;SDS011;38714;53.180;5.812;2023-03-01T01:00:02;12.37;;;5.87;;
52848;SDS011;38714;53.180;5.812;2023-03-01T01:02:29;70.93;;;15.00;;
52848;SDS011;38714;53.180;5.812;2023-03-01T01:04:54;102.30;;;16.47;;
52848;SDS011;38714;53.180;5.812;2023-03-01T01:07:20;96.20;;;18.27;;
52848;SDS011;38714;53.180;5.812;2023-03-01T01:09:46;101.53;;;18.67;;
52848;SDS011;38714;53.180;5.812;2023-03-01T01:12:11;90.53;;;18.00;;
52848;SDS011;38714;53.180;5.812;2023-03-01T01:14:37;52.43;;;13.03;;
52848;SDS011;38714;53.180;5.812;2023-03-01T01:17:03;100.70;;;15.00;;
52848;SDS011;38714;53.180;5.812;2023-03-01T01:19:29;32.73;;;10.53;;
52848;SDS011;38714;53.180;5.812;2023-03-01T01:21:55;18.80;;;8.70;;
52848;SDS011;38714;53.180;5.812;2023-03-01T01:24:20;39.37;;;12.87;;
52848;SDS011;38714;53.180;5.812;2023-03-01T01:26:46;53.30;;;11.87;;
52848;SDS011;38714;53.180;5.812;2023-03-01T01:29:12;20.53;;;8.00;;
52848;SDS011;38714;53.180;5.812;2023-03-01T01:31:38;9.17;;;5.00;;
52848;SDS011;38714;53.180;5.812;2023-03-01T01:34:06;41.83;;;8.17;;
52848;SDS011;38714;53.180;5.812;2023-03-01T01:36:33;31.83;;;10.27;;
52848;SDS011;38714;53.180;5.812;2023-03-01T01:38:59;18.10;;;6.30;;
52848;SDS011;38714;53.180;5.812;2023-03-01T01:41:26;22.07;;;6.83;;
52848;SDS011;38714;53.180;5.812;2023-03-01T01:51:44;9.40;;;6.20;;
52848;SDS011;38714;53.180;5.812;2023-03-01T01:54:23;6.00;;;3.63;;
52848;SDS011;38714;53.180;5.812;2023-03-01T01:57:03;7.27;;;3.70;;
52848;SDS011;38714;53.180;5.812;2023-03-01T01:59:35;7.97;;;4.10;;
52848;SDS011;38714;53.180;5.812;2023-03-01T02:02:02;4.20;;;3.80;;
52848;SDS011;38714;53.180;5.812;2023-03-01T02:04:30;5.43;;;4.90;;
52848;SDS011;38714;53.180;5.812;2023-03-01T02:06:58;5.50;;;4.57;;
52848;SDS011;38714;53.180;5.812;2023-03-01T02:09:31;5.43;;;4.87;;
52848;SDS011;38714;53.180;5.812;2023-03-01T02:11:58;7.27;;;4.43;;
52848;SDS011;38714;53.180;5.812;2023-03-01T02:14:25;7.00;;;4.30;;
52848;SDS011;38714;53.180;5.812;2023-03-01T02:16:51;6.40;;;4.07;;
52848;SDS011;38714;53.180;5.812;2023-03-01T02:19:23;8.17;;;5.40;;
52848;SDS011;38714;53.180;5.812;2023-03-01T02:22:02;4.47;;;4.07;;
52848;SDS011;38714;53.180;5.812;2023-03-01T02:24:45;6.13;;;5.10;;
52848;SDS011;38714;53.180;5.812;2023-03-01T02:27:16;6.33;;;4.07;;
52848;SDS011;38714;53.180;5.812;2023-03-01T02:29:48;6.17;;;4.47;;
52848;SDS011;38714;53.180;5.812;2023-03-01T02:32:14;4.57;;;3.90;;
52848;SDS011;38714;53.180;5.812;2023-03-01T02:34:41;3.53;;;3.13;;
52848;SDS011;38714;53.180;5.812;2023-03-01T02:37:08;5.80;;;4.60;;
52848;SDS011;38714;53.180;5.812;2023-03-01T02:42:12;6.03;;;5.43;;
52848;SDS011;38714;53.180;5.812;2023-03-01T02:44:41;4.63;;;2.97;;
52848;SDS011;38714;53.180;5.812;2023-03-01T02:47:07;5.53;;;4.20;;
52848;SDS011;38714;53.180;5.812;2023-03-01T02:49:34;6.63;;;3.97;;
52848;SDS011;38714;53.180;5.812;2023-03-01T02:52:47;5.57;;;4.17;;
52848;SDS011;38714;53.180;5.812;2023-03-01T02:57:27;7.53;;;5.03;;
52848;SDS011;38714;53.180;5.812;2023-03-01T02:59:54;4.87;;;4.33;;
52848;SDS011;38714;53.180;5.812;2023-03-01T03:02:23;8.73;;;4.73;;
52848;SDS011;38714;53.180;5.812;2023-03-01T03:05:12;9.40;;;6.23;;
52848;SDS011;38714;53.180;5.812;2023-03-01T03:07:41;5.77;;;4.70;;
52848;SDS011;38714;53.180;5.812;2023-03-01T03:10:10;9.97;;;4.33;;
52848;SDS011;38714;53.180;5.812;2023-03-01T03:12:41;3.78;;;3.15;;
52848;SDS011;38714;53.180;5.812;2023-03-01T03:15:07;34.03;;;8.97;;
52848;SDS011;38714;53.180;5.812;2023-03-01T03:17:35;101.37;;;14.97;;
52848;SDS011;38714;53.180;5.812;2023-03-01T03:20:02;49.40;;;6.63;;
52848;SDS011;38714;53.180;5.812;2023-03-01T03:22:29;50.80;;;11.27;;
52848;SDS011;38714;53.180;5.812;2023-03-01T03:24:55;60.33;;;6.83;;
52848;SDS011;38714;53.180;5.812;2023-03-01T03:27:21;20.17;;;5.13;;
52848;SDS011;38714;53.180;5.812;2023-03-01T03:29:46;14.53;;;7.47;;
52848;SDS011;38714;53.180;5.812;2023-03-01T03:32:12;54.57;;;16.60;;
52848;SDS011;38714;53.180;5.812;2023-03-01T03:34:37;100.67;;;12.90;;
52848;SDS011;38714;53.180;5.812;2023-03-01T03:37:03;32.70;;;7.73;;
52848;SDS011;38714;53.180;5.812;2023-03-01T03:39:49;17.97;;;6.10;;
52848;SDS011;38714;53.180;5.812;2023-03-01T03:42:14;46.57;;;7.30;;
52848;SDS011;38714;53.180;5.812;2023-03-01T03:44:40;59.30;;;9.17;;
52848;SDS011;38714;53.180;5.812;2023-03-01T03:47:05;68.93;;;8.93;;
52848;SDS011;38714;53.180;5.812;2023-03-01T03:49:31;43.43;;;10.03;;
52848;SDS011;38714;53.180;5.812;2023-03-01T03:51:58;46.90;;;11.03;;
52848;SDS011;38714;53.180;5.812;2023-03-01T03:54:23;12.83;;;7.57;;
52848;SDS011;38714;53.180;5.812;2023-03-01T03:56:49;15.33;;;8.17;;
52848;SDS011;38714;53.180;5.812;2023-03-01T03:59:15;42.47;;;10.00;;
52848;SDS011;38714;53.180;5.812;2023-03-01T04:01:40;15.77;;;5.23;;
52848;SDS011;38714;53.180;5.812;2023-03-01T04:04:06;14.30;;;6.03;;
52848;SDS011;38714;53.180;5.812;2023-03-01T04:06:32;18.60;;;6.20;;
52848;SDS011;38714;53.180;5.812;2023-03-01T04:08:58;113.87;;;15.30;;
52848;SDS011;38714;53.180;5.812;2023-03-01T04:11:27;28.10;;;8.83;;
52848;SDS011;38714;53.180;5.812;2023-03-01T04:13:54;13.23;;;5.63;;
52848;SDS011;38714;53.180;5.812;2023-03-01T04:16:21;18.10;;;8.23;;
52848;SDS011;38714;53.180;5.812;2023-03-01T04:18:48;51.53;;;8.33;;
52848;SDS011;38714;53.180;5.812;2023-03-01T04:21:14;40.63;;;9.80;;
52848;SDS011;38714;53.180;5.812;2023-03-01T04:23:40;62.97;;;9.60;;
52848;SDS011;38714;53.180;5.812;2023-03-01T04:26:08;137.87;;;20.47;;
52848;SDS011;38714;53.180;5.812;2023-03-01T04:28:35;18.90;;;6.47;;
52848;SDS011;38714;53.180;5.812;2023-03-01T04:31:05;41.27;;;9.70;;
52848;SDS011;38714;53.180;5.812;2023-03-01T04:36:12;10.80;;;6.43;;
52848;SDS011;38714;53.180;5.812;2023-03-01T04:38:40;6.27;;;5.77;;
52848;SDS011;38714;53.180;5.812;2023-03-01T04:41:06;44.53;;;10.03;;
52848;SDS011;38714;53.180;5.812;2023-03-01T04:43:35;14.73;;;7.73;;
52848;SDS011;38714;53.180;5.812;2023-03-01T04:46:02;92.00;;;6.63;;
52848;SDS011;38714;53.180;5.812;2023-03-01T04:48:29;30.17;;;8.90;;
52848;SDS011;38714;53.180;5.812;2023-03-01T04:50:55;9.10;;;5.87;;
52848;SDS011;38714;53.180;5.812;2023-03-01T04:53:21;8.80;;;5.80;;
52848;SDS011;38714;53.180;5.812;2023-03-01T04:55:46;28.93;;;10.57;;
52848;SDS011;38714;53.180;5.812;2023-03-01T04:58:12;29.60;;;7.87;;
52848;SDS011;38714;53.180;5.812;2023-03-01T05:00:38;11.50;;;5.90;;
52848;SDS011;38714;53.180;5.812;2023-03-01T05:03:03;35.73;;;11.20;;
52848;SDS011;38714;53.180;5.812;2023-03-01T05:08:00;35.60;;;9.80;;
52848;SDS011;38714;53.180;5.812;2023-03-01T05:10:29;79.77;;;9.77;;
52848;SDS011;38714;53.180;5.812;2023-03-01T05:12:56;112.70;;;13.13;;
52848;SDS011;38714;53.180;5.812;2023-03-01T05:15:23;15.60;;;7.53;;
52848;SDS011;38714;53.180;5.812;2023-03-01T05:17:50;123.13;;;16.50;;
52848;SDS011;38714;53.180;5.812;2023-03-01T05:20:17;159.60;;;20.60;;
52848;SDS011;38714;53.180;5.812;2023-03-01T05:22:47;110.93;;;20.03;;
52848;SDS011;38714;53.180;5.812;2023-03-01T05:25:13;82.70;;;9.37;;
52848;SDS011;38714;53.180;5.812;2023-03-01T05:27:39;126.23;;;22.13;;
52848;SDS011;38714;53.180;5.812;2023-03-01T05:30:05;63.20;;;13.17;;
52848;SDS011;38714;53.180;5.812;2023-03-01T05:32:42;50.00;;;14.73;;
52848;SDS011;38714;53.180;5.812;2023-03-01T05:35:10;10.50;;;6.83;;
52848;SDS011;38714;53.180;5.812;2023-03-01T05:37:38;86.57;;;11.50;;
52848;SDS011;38714;53.180;5.812;2023-03-01T05:40:05;40.97;;;13.47;;
52848;SDS011;38714;53.180;5.812;2023-03-01T05:42:40;24.27;;;6.17;;
52848;SDS011;38714;53.180;5.812;2023-03-01T05:45:07;18.20;;;10.33;;
52848;SDS011;38714;53.180;5.812;2023-03-01T05:47:34;128.77;;;14.70;;
52848;SDS011;38714;53.180;5.812;2023-03-01T05:50:00;61.40;;;13.23;;
52848;SDS011;38714;53.180;5.812;2023-03-01T05:52:26;24.47;;;7.90;;
52848;SDS011;38714;53.180;5.812;2023-03-01T05:54:52;11.43;;;6.00;;
52848;SDS011;38714;53.180;5.812;2023-03-01T05:57:17;64.77;;;12.30;;
52848;SDS011;38714;53.180;5.812;2023-03-01T05:59:43;82.87;;;14.30;;
52848;SDS011;38714;53.180;5.812;2023-03-01T06:02:08;50.17;;;9.50;;
52848;SDS011;38714;53.180;5.812;2023-03-01T06:04:34;108.77;;;16.00;;
52848;SDS011;38714;53.180;5.812;2023-03-01T06:07:00;22.77;;;6.20;;
52848;SDS011;38714;53.180;5.812;2023-03-01T06:09:25;13.23;;;6.93;;
52848;SDS011;38714;53.180;5.812;2023-03-01T06:11:51;57.40;;;6.60;;
52848;SDS011;38714;53.180;5.812;2023-03-01T06:14:16;121.80;;;15.63;;
52848;SDS011;38714;53.180;5.812;2023-03-01T06:16:42;78.47;;;12.87;;
52848;SDS011;38714;53.180;5.812;2023-03-01T06:19:08;95.47;;;13.10;;
52848;SDS011;38714;53.180;5.812;2023-03-01T06:21:33;42.17;;;5.90;;
52848;SDS011;38714;53.180;5.812;2023-03-01T06:23:59;10.20;;;6.53;;
52848;SDS011;38714;53.180;5.812;2023-03-01T06:26:24;11.57;;;5.03;;
52848;SDS011;38714;53.180;5.812;2023-03-01T06:28:50;11.33;;;4.70;;
52848;SDS011;38714;53.180;5.812;2023-03-01T06:31:15;9.33;;;5.67;;
52848;SDS011;38714;53.180;5.812;2023-03-01T06:33:41;6.30;;;4.67;;
52848;SDS011;38714;53.180;5.812;2023-03-01T06:36:07;5.83;;;4.77;;
52848;SDS011;38714;53.180;5.812;2023-03-01T06:38:33;8.53;;;5.47;;
52848;SDS011;38714;53.180;5.812;2023-03-01T06:40:58;10.90;;;5.70;;
52848;SDS011;38714;53.180;5.812;2023-03-01T06:43:24;7.87;;;5.37;;
52848;SDS011;38714;53.180;5.812;2023-03-01T06:45:50;5.40;;;4.90;;
52848;SDS011;38714;53.180;5.812;2023-03-01T06:48:16;8.23;;;5.30;;
52848;SDS011;38714;53.180;5.812;2023-03-01T06:50:42;5.50;;;4.77;;
52848;SDS011;38714;53.180;5.812;2023-03-01T06:53:07;7.40;;;5.03;;
52848;SDS011;38714;53.180;5.812;2023-03-01T06:55:33;5.07;;;4.27;;
52848;SDS011;38714;53.180;5.812;2023-03-01T06:57:59;9.03;;;5.43;;
52848;SDS011;38714;53.180;5.812;2023-03-01T07:00:26;4.50;;;4.10;;
52848;SDS011;38714;53.180;5.812;2023-03-01T07:02:52;6.77;;;3.77;;
52848;SDS011;38714;53.180;5.812;2023-03-01T07:05:18;7.47;;;4.60;;
52848;SDS011;38714;53.180;5.812;2023-03-01T07:07:44;6.07;;;4.50;;
52848;SDS011;38714;53.180;5.812;2023-03-01T07:10:10;35.27;;;7.63;;
52848;SDS011;38714;53.180;5.812;2023-03-01T07:12:36;23.30;;;6.80;;
52848;SDS011;38714;53.180;5.812;2023-03-01T07:15:02;11.00;;;5.73;;
52848;SDS011;38714;53.180;5.812;2023-03-01T07:17:28;8.47;;;5.67;;
52848;SDS011;38714;53.180;5.812;2023-03-01T07:19:54;9.60;;;5.03;;
52848;SDS011;38714;53.180;5.812;2023-03-01T07:22:20;85.07;;;13.13;;
52848;SDS011;38714;53.180;5.812;2023-03-01T07:24:45;130.33;;;21.83;;
52848;SDS011;38714;53.180;5.812;2023-03-01T07:27:11;162.27;;;26.07;;
52848;SDS011;38714;53.180;5.812;2023-03-01T07:29:36;59.90;;;10.13;;
52848;SDS011;38714;53.180;5.812;2023-03-01T07:32:03;30.77;;;7.60;;
52848;SDS011;38714;53.180;5.812;2023-03-01T07:34:30;8.83;;;4.57;;
52848;SDS011;38714;53.180;5.812;2023-03-01T07:36:55;8.23;;;5.40;;
52848;SDS011;38714;53.180;5.812;2023-03-01T07:39:21;7.47;;;5.43;;
52848;SDS011;38714;53.180;5.812;2023-03-01T07:41:48;5.23;;;4.27;;
52848;SDS011;38714;53.180;5.812;2023-03-01T07:44:14;7.63;;;4.73;;
52848;SDS011;38714;53.180;5.812;2023-03-01T07:46:41;9.20;;;4.80;;
52848;SDS011;38714;53.180;5.812;2023-03-01T07:49:06;7.47;;;4.83;;
52848;SDS011;38714;53.180;5.812;2023-03-01T07:51:32;5.97;;;4.50;;
52848;SDS011;38714;53.180;5.812;2023-03-01T07:53:58;9.87;;;5.43;;
52848;SDS011;38714;53.180;5.812;2023-03-01T07:56:23;7.63;;;5.63;;
52848;SDS011;38714;53.180;5.812;2023-03-01T07:58:49;6.53;;;4.77;;
52848;SDS011;38714;53.180;5.812;2023-03-01T08:01:15;7.57;;;5.20;;
52848;SDS011;38714;53.180;5.812;2023-03-01T08:03:42;14.27;;;5.90;;
52848;SDS011;38714;53.180;5.812;2023-03-01T08:06:09;9.93;;;4.87;;
52848;SDS011;38714;53.180;5.812;2023-03-01T08:08:35;8.40;;;6.97;;
52848;SDS011;38714;53.180;5.812;2023-03-01T08:11:02;8.77;;;5.13;;
52848;SDS011;38714;53.180;5.812;2023-03-01T08:13:29;11.03;;;6.80;;
52848;SDS011;38714;53.180;5.812;2023-03-01T08:18:51;7.83;;;5.60;;
52848;SDS011;38714;53.180;5.812;2023-03-01T08:26:27;6.70;;;5.97;;
52848;SDS011;38714;53.180;5.812;2023-03-01T08:28:53;7.97;;;7.07;;
52848;SDS011;38714;53.180;5.812;2023-03-01T08:31:20;10.30;;;8.30;;
52848;SDS011;38714;53.180;5.812;2023-03-01T08:33:51;10.73;;;9.50;;
52848;SDS011;38714;53.180;5.812;2023-03-01T08:36:23;14.20;;;9.48;;
52848;SDS011;38714;53.180;5.812;2023-03-01T08:38:50;11.00;;;8.10;;
52848;SDS011;38714;53.180;5.812;2023-03-01T08:41:16;17.07;;;9.90;;
52848;SDS011;38714;53.180;5.812;2023-03-01T08:43:42;16.23;;;10.67;;
52848;SDS011;38714;53.180;5.812;2023-03-01T08:46:08;12.60;;;8.90;;
52848;SDS011;38714;53.180;5.812;2023-03-01T08:48:34;10.13;;;8.93;;
52848;SDS011;38714;53.180;5.812;2023-03-01T08:51:13;19.73;;;10.57;;
52848;SDS011;38714;53.180;5.812;2023-03-01T08:53:40;14.97;;;9.57;;
52848;SDS011;38714;53.180;5.812;2023-03-01T08:56:06;14.30;;;11.27;;
52848;SDS011;38714;53.180;5.812;2023-03-01T08:58:33;12.63;;;9.27;;
52848;SDS011;38714;53.180;5.812;2023-03-01T09:00:58;12.77;;;10.00;;
52848;SDS011;38714;53.180;5.812;2023-03-01T09:03:25;13.70;;;10.30;;
52848;SDS011;38714;53.180;5.812;2023-03-01T09:05:52;18.53;;;12.97;;
52848;SDS011;38714;53.180;5.812;2023-03-01T09:08:21;22.97;;;13.90;;
52848;SDS011;38714;53.180;5.812;2023-03-01T09:10:46;15.90;;;10.50;;
52848;SDS011;38714;53.180;5.812;2023-03-01T09:13:12;23.43;;;12.20;;
52848;SDS011;38714;53.180;5.812;2023-03-01T09:15:37;16.70;;;11.40;;
52848;SDS011;38714;53.180;5.812;2023-03-01T09:18:03;11.60;;;9.70;;
52848;SDS011;38714;53.180;5.812;2023-03-01T09:20:30;19.00;;;10.43;;
52848;SDS011;38714;53.180;5.812;2023-03-01T09:22:57;18.57;;;10.57;;
52848;SDS011;38714;53.180;5.812;2023-03-01T09:25:22;14.87;;;10.07;;
52848;SDS011;38714;53.180;5.812;2023-03-01T09:27:52;14.13;;;10.53;;
52848;SDS011;38714;53.180;5.812;2023-03-01T09:30:18;13.10;;;10.20;;
52848;SDS011;38714;53.180;5.812;2023-03-01T09:32:43;16.97;;;10.57;;
52848;SDS011;38714;53.180;5.812;2023-03-01T09:35:10;14.60;;;12.47;;
52848;SDS011;38714;53.180;5.812;2023-03-01T09:55:48;15.57;;;10.73;;
52848;SDS011;38714;53.180;5.812;2023-03-01T10:01:02;14.00;;;8.60;;
52848;SDS011;38714;53.180;5.812;2023-03-01T10:06:34;11.53;;;8.07;;
52848;SDS011;38714;53.180;5.812;2023-03-01T10:09:00;14.60;;;10.03;;
52848;SDS011;38714;53.180;5.812;2023-03-01T10:11:35;10.27;;;8.27;;
52848;SDS011;38714;53.180;5.812;2023-03-01T10:14:17;12.47;;;8.73;;
52848;SDS011;38714;53.180;5.812;2023-03-01T10:17:03;15.30;;;10.17;;
52848;SDS011;38714;53.180;5.812;2023-03-01T10:19:41;10.77;;;8.07;;
52848;SDS011;38714;53.180;5.812;2023-03-01T10:24:43;13.73;;;10.33;;
52848;SDS011;38714;53.180;5.812;2023-03-01T10:27:22;21.07;;;13.53;;
52848;SDS011;38714;53.180;5.812;2023-03-01T10:32:52;15.80;;;11.07;;
52848;SDS011;38714;53.180;5.812;2023-03-01T10:35:22;18.17;;;10.93;;
52848;SDS011;38714;53.180;5.812;2023-03-01T10:37:57;16.73;;;11.40;;
52848;SDS011;38714;53.180;5.812;2023-03-01T10:40:22;15.27;;;11.33;;
52848;SDS011;38714;53.180;5.812;2023-03-01T10:42:48;15.03;;;11.13;;
52848;SDS011;38714;53.180;5.812;2023-03-01T10:48:01;12.93;;;9.20;;
52848;SDS011;38714;53.180;5.812;2023-03-01T10:50:30;16.93;;;13.30;;
52848;SDS011;38714;53.180;5.812;2023-03-01T10:53:01;21.50;;;12.07;;
52848;SDS011;38714;53.180;5.812;2023-03-01T10:58:20;17.47;;;13.47;;
52848;SDS011;38714;53.180;5.812;2023-03-01T11:06:01;23.23;;;15.53;;
52848;SDS011;38714;53.180;5.812;2023-03-01T11:08:49;20.17;;;12.83;;
52848;SDS011;38714;53.180;5.812;2023-03-01T11:11:32;13.83;;;9.67;;
52848;SDS011;38714;53.180;5.812;2023-03-01T11:16:29;14.93;;;11.00;;
52848;SDS011;38714;53.180;5.812;2023-03-01T11:21:39;14.27;;;11.03;;
52848;SDS011;38714;53.180;5.812;2023-03-01T11:24:09;16.43;;;11.47;;
52848;SDS011;38714;53.180;5.812;2023-03-01T11:26:41;15.02;;;10.52;;
52848;SDS011;38714;53.180;5.812;2023-03-01T11:29:15;14.40;;;11.73;;
52848;SDS011;38714;53.180;5.812;2023-03-01T11:31:50;16.33;;;11.00;;
52848;SDS011;38714;53.180;5.812;2023-03-01T11:34:20;12.90;;;9.97;;
52848;SDS011;38714;53.180;5.812;2023-03-01T11:36:58;13.47;;;9.40;;
52848;SDS011;38714;53.180;5.812;2023-03-01T11:39:28;13.13;;;9.70;;
52848;SDS011;38714;53.180;5.812;2023-03-01T11:44:49;10.73;;;9.07;;
52848;SDS011;38714;53.180;5.812;2023-03-01T11:47:22;15.87;;;9.60;;
52848;SDS011;38714;53.180;5.812;2023-03-01T11:55:14;18.57;;;12.03;;
52848;SDS011;38714;53.180;5.812;2023-03-01T11:58:08;12.27;;;8.77;;
52848;SDS011;38714;53.180;5.812;2023-03-01T12:12:45;13.10;;;10.18;;
52848;SDS011;38714;53.180;5.812;2023-03-01T12:51:36;16.45;;;11.10;;
52848;SDS011;38714;53.180;5.812;2023-03-01T12:54:46;14.15;;;11.93;;
52848;SDS011;38714;53.180;5.812;2023-03-01T12:56:59;10.02;;;8.02;;
52848;SDS011;38714;53.180;5.812;2023-03-01T12:59:36;12.98;;;9.80;;
52848;SDS011;38714;53.180;5.812;2023-03-01T13:11:04;16.35;;;10.38;;
52848;SDS011;38714;53.180;5.812;2023-03-01T13:13:36;14.95;;;8.77;;
52848;SDS011;38714;53.180;5.812;2023-03-01T13:19:05;16.98;;;9.82;;
52848;SDS011;38714;53.180;5.812;2023-03-01T13:21:37;17.83;;;10.90;;
52848;SDS011;38714;53.180;5.812;2023-03-01T13:24:03;17.10;;;11.55;;
52848;SDS011;38714;53.180;5.812;2023-03-01T13:26:29;11.57;;;10.30;;
52848;SDS011;38714;53.180;5.812;2023-03-01T13:28:56;12.77;;;9.85;;
52848;SDS011;38714;53.180;5.812;2023-03-01T13:44:16;12.50;;;9.30;;
52848;SDS011;38714;53.180;5.812;2023-03-01T13:47:37;10.60;;;8.48;;
52848;SDS011;38714;53.180;5.812;2023-03-01T13:49:43;14.40;;;9.05;;
52848;SDS011;38714;53.180;5.812;2023-03-01T13:57:40;9.70;;;7.88;;
52848;SDS011;38714;53.180;5.812;2023-03-01T14:00:32;11.18;;;8.35;;
52848;SDS011;38714;53.180;5.812;2023-03-01T14:03:01;10.38;;;8.80;;
52848;SDS011;38714;53.180;5.812;2023-03-01T14:05:30;19.13;;;12.25;;
52848;SDS011;38714;53.180;5.812;2023-03-01T14:07:56;16.77;;;10.27;;
52848;SDS011;38714;53.180;5.812;2023-03-01T14:10:22;13.40;;;10.27;;
52848;SDS011;38714;53.180;5.812;2023-03-01T14:13:06;11.18;;;9.00;;
52848;SDS011;38714;53.180;5.812;2023-03-01T14:19:00;12.73;;;9.00;;
52848;SDS011;38714;53.180;5.812;2023-03-01T14:21:45;11.38;;;7.07;;
52848;SDS011;38714;53.180;5.812;2023-03-01T14:24:18;12.50;;;9.85;;
52848;SDS011;38714;53.180;5.812;2023-03-01T14:26:46;23.27;;;10.43;;
52848;SDS011;38714;53.180;5.812;2023-03-01T14:34:49;17.58;;;7.55;;
52848;SDS011;38714;53.180;5.812;2023-03-01T14:39:43;15.45;;;9.52;;
52848;SDS011;38714;53.180;5.812;2023-03-01T14:42:09;10.60;;;6.68;;
52848;SDS011;38714;53.180;5.812;2023-03-01T14:44:36;9.93;;;8.02;;
52848;SDS011;38714;53.180;5.812;2023-03-01T14:47:02;21.60;;;8.68;;
52848;SDS011;38714;53.180;5.812;2023-03-01T14:49:29;18.05;;;8.90;;
52848;SDS011;38714;53.180;5.812;2023-03-01T14:51:59;13.48;;;9.30;;
52848;SDS011;38714;53.180;5.812;2023-03-01T14:54:42;11.63;;;8.07;;
52848;SDS011;38714;53.180;5.812;2023-03-01T14:57:26;11.98;;;8.93;;
52848;SDS011;38714;53.180;5.812;2023-03-01T14:59:53;13.40;;;9.48;;
52848;SDS011;38714;53.180;5.812;2023-03-01T15:02:31;10.32;;;7.50;;
52848;SDS011;38714;53.180;5.812;2023-03-01T15:04:58;13.15;;;7.05;;
52848;SDS011;38714;53.180;5.812;2023-03-01T15:07:29;15.45;;;9.23;;
52848;SDS011;38714;53.180;5.812;2023-03-01T15:09:57;13.90;;;8.82;;
52848;SDS011;38714;53.180;5.812;2023-03-01T15:14:53;13.27;;;9.30;;
52848;SDS011;38714;53.180;5.812;2023-03-01T15:17:29;11.93;;;7.50;;
52848;SDS011;38714;53.180;5.812;2023-03-01T15:20:13;12.63;;;6.38;;
52848;SDS011;38714;53.180;5.812;2023-03-01T15:22:45;14.48;;;7.90;;
52848;SDS011;38714;53.180;5.812;2023-03-01T15:25:17;10.25;;;6.82;;
52848;SDS011;38714;53.180;5.812;2023-03-01T15:27:47;10.25;;;7.07;;
52848;SDS011;38714;53.180;5.812;2023-03-01T15:30:18;11.00;;;6.63;;
52848;SDS011;38714;53.180;5.812;2023-03-01T15:32:47;11.93;;;7.13;;
52848;SDS011;38714;53.180;5.812;2023-03-01T15:38:22;9.40;;;6.07;;
52848;SDS011;38714;53.180;5.812;2023-03-01T15:40:49;11.07;;;7.78;;
52848;SDS011;38714;53.180;5.812;2023-03-01T15:43:36;8.52;;;7.65;;
52848;SDS011;38714;53.180;5.812;2023-03-01T15:46:21;12.90;;;8.57;;
52848;SDS011;38714;53.180;5.812;2023-03-01T15:48:51;12.15;;;8.50;;
52848;SDS011;38714;53.180;5.812;2023-03-01T15:51:27;14.10;;;7.38;;
52848;SDS011;38714;53.180;5.812;2023-03-01T15:53:59;11.43;;;8.18;;
52848;SDS011;38714;53.180;5.812;2023-03-01T15:56:28;12.32;;;7.78;;
52848;SDS011;38714;53.180;5.812;2023-03-01T15:58:57;13.23;;;7.05;;
52848;SDS011;38714;53.180;5.812;2023-03-01T16:01:24;13.75;;;7.43;;
52848;SDS011;38714;53.180;5.812;2023-03-01T16:03:50;11.70;;;8.27;;
52848;SDS011;38714;53.180;5.812;2023-03-01T16:06:16;11.48;;;7.60;;
52848;SDS011;38714;53.180;5.812;2023-03-01T16:08:42;7.82;;;6.25;;
52848;SDS011;38714;53.180;5.812;2023-03-01T16:11:18;11.10;;;6.47;;
52848;SDS011;38714;53.180;5.812;2023-03-01T16:13:45;13.18;;;8.82;;
52848;SDS011;38714;53.180;5.812;2023-03-01T16:16:11;11.75;;;10.02;;
52848;SDS011;38714;53.180;5.812;2023-03-01T16:18:40;10.20;;;7.47;;
52848;SDS011;38714;53.180;5.812;2023-03-01T16:21:14;13.25;;;8.52;;
52848;SDS011;38714;53.180;5.812;2023-03-01T16:23:43;9.88;;;7.30;;
52848;SDS011;38714;53.180;5.812;2023-03-01T16:26:09;10.80;;;7.90;;
52848;SDS011;38714;53.180;5.812;2023-03-01T16:28:35;8.70;;;6.78;;
52848;SDS011;38714;53.180;5.812;2023-03-01T16:31:01;9.50;;;6.63;;
52848;SDS011;38714;53.180;5.812;2023-03-01T16:33:27;8.50;;;7.20;;
52848;SDS011;38714;53.180;5.812;2023-03-01T16:35:52;14.55;;;8.75;;
52848;SDS011;38714;53.180;5.812;2023-03-01T16:38:18;13.93;;;10.75;;
52848;SDS011;38714;53.180;5.812;2023-03-01T16:40:47;15.35;;;10.32;;
52848;SDS011;38714;53.180;5.812;2023-03-01T16:43:14;21.58;;;12.60;;
52848;SDS011;38714;53.180;5.812;2023-03-01T16:45:40;15.25;;;10.45;;
52848;SDS011;38714;53.180;5.812;2023-03-01T16:48:12;15.48;;;10.68;;
52848;SDS011;38714;53.180;5.812;2023-03-01T16:50:38;12.07;;;9.90;;
52848;SDS011;38714;53.180;5.812;2023-03-01T16:53:04;16.45;;;11.23;;
52848;SDS011;38714;53.180;5.812;2023-03-01T16:55:30;17.08;;;12.18;;
52848;SDS011;38714;53.180;5.812;2023-03-01T16:57:56;11.40;;;9.80;;
52848;SDS011;38714;53.180;5.812;2023-03-01T17:00:21;20.83;;;12.40;;
52848;SDS011;38714;53.180;5.812;2023-03-01T17:02:47;15.68;;;9.60;;
52848;SDS011;38714;53.180;5.812;2023-03-01T17:05:13;18.70;;;11.98;;
52848;SDS011;38714;53.180;5.812;2023-03-01T17:07:39;18.02;;;11.85;;
52848;SDS011;38714;53.180;5.812;2023-03-01T17:10:06;19.88;;;12.15;;
52848;SDS011;38714;53.180;5.812;2023-03-01T17:12:33;21.52;;;11.80;;
52848;SDS011;38714;53.180;5.812;2023-03-01T17:14:59;11.85;;;10.60;;
52848;SDS011;38714;53.180;5.812;2023-03-01T17:17:24;16.05;;;11.93;;
52848;SDS011;38714;53.180;5.812;2023-03-01T17:19:51;20.13;;;10.90;;
52848;SDS011;38714;53.180;5.812;2023-03-01T17:22:17;12.68;;;9.15;;
52848;SDS011;38714;53.180;5.812;2023-03-01T17:24:43;14.93;;;10.30;;
52848;SDS011;38714;53.180;5.812;2023-03-01T17:27:09;16.55;;;12.68;;
52848;SDS011;38714;53.180;5.812;2023-03-01T17:29:36;18.80;;;10.18;;
52848;SDS011;38714;53.180;5.812;2023-03-01T17:32:03;18.10;;;13.35;;
52848;SDS011;38714;53.180;5.812;2023-03-01T17:34:30;14.88;;;11.60;;
52848;SDS011;38714;53.180;5.812;2023-03-01T17:36:56;18.83;;;11.20;;